Time;durP1;ratioP1;P1;durP2;ratioP2;P2;SDS_P1;SDS_P2;PMS_P1;PMS_P2;Temp;Humidity;BMP_temperature;BMP_pressure;BME280_temperature;BME280_humidity;BME280_pressure;Samples;Min_cycle;Max_cycle;Signal;HPM_P1;HPM_P2
2022/02/04 00:06:45;;;;;;;6.00;5.40;;;7.70;99.90;;;;;;5014824;28;20033;-48
2022/02/04 00:24:23;;;;;;;7.35;5.10;;;7.70;99.90;;;;;;5014532;28;20504;-47
2022/02/04 00:26:57;;;;;;;5.93;4.43;;;7.60;99.90;;;;;;5013011;28;20026;-46
2022/02/04 00:29:32;;;;;;;9.02;5.47;;;7.50;99.90;;;;;;5014280;28;20025;-49
2022/02/04 00:32:04;;;;;;;6.90;5.28;;;7.50;99.90;;;;;;5014190;28;20097;-48
2022/02/04 00:34:37;;;;;;;7.32;4.97;;;7.60;99.90;;;;;;5013821;28;20030;-47
2022/02/04 00:37:17;;;;;;;6.80;5.32;;;7.50;99.90;;;;;;5012821;28;20029;-50
2022/02/04 00:39:51;;;;;;;8.40;5.53;;;7.50;99.90;;;;;;5013932;28;20426;-47
2022/02/04 00:42:17;;;;;;;6.50;5.53;;;7.50;99.90;;;;;;5014345;28;20018;-46
2022/02/04 00:44:43;;;;;;;6.35;5.25;;;7.40;99.90;;;;;;5013250;28;20033;-46
2022/02/04 00:52:26;;;;;;;6.28;5.35;;;7.30;99.90;;;;;;5014048;28;20026;-45
2022/02/04 00:54:58;;;;;;;9.23;6.13;;;7.30;99.90;;;;;;5013452;28;20024;-47
2022/02/04 00:57:45;;;;;;;8.98;6.72;;;7.30;99.90;;;;;;5013894;28;20029;-48
2022/02/04 01:27:23;;;;;;;7.85;5.13;;;7.30;99.90;;;;;;5013072;28;20137;-48
2022/02/04 01:30:35;;;;;;;7.63;5.90;;;7.30;99.90;;;;;;5012881;28;20809;-45
2022/02/04 01:32:35;;;;;;;7.30;5.18;;;7.30;99.90;;;;;;5009010;28;20524;-48
2022/02/04 01:35:00;;;;;;;5.15;4.57;;;7.30;99.90;;;;;;5012632;28;20069;-46
2022/02/04 01:37:26;;;;;;;5.28;4.43;;;7.30;99.90;;;;;;5012786;28;20057;-48
2022/02/04 01:39:51;;;;;;;4.57;4.13;;;7.30;99.90;;;;;;5012679;28;20136;-46
2022/02/04 01:42:17;;;;;;;4.50;3.90;;;7.30;99.90;;;;;;5012669;28;20536;-48
2022/02/04 01:44:43;;;;;;;4.20;3.67;;;7.40;99.90;;;;;;5012315;28;20030;-47
2022/02/04 01:47:09;;;;;;;6.15;4.32;;;7.40;99.90;;;;;;5012660;28;20026;-48
2022/02/04 01:49:36;;;;;;;4.47;4.05;;;7.40;99.90;;;;;;5012561;28;20377;-47
2022/02/04 01:52:03;;;;;;;5.18;4.25;;;7.40;99.90;;;;;;5012574;28;20021;-46
2022/02/04 01:54:29;;;;;;;6.00;4.43;;;7.40;99.90;;;;;;5012337;28;20030;-46
2022/02/04 01:56:54;;;;;;;6.93;3.88;;;7.50;99.90;;;;;;5012715;28;20045;-49
2022/02/04 01:59:20;;;;;;;4.68;4.03;;;7.50;99.90;;;;;;5012420;28;20053;-49
2022/02/04 02:01:45;;;;;;;5.55;4.28;;;7.50;99.90;;;;;;5012480;28;20026;-49
2022/02/04 02:04:13;;;;;;;5.38;3.70;;;7.50;99.90;;;;;;5012066;28;20517;-46
2022/02/04 02:06:53;;;;;;;7.38;4.90;;;7.50;99.90;;;;;;5012245;28;20025;-48
2022/02/04 02:09:24;;;;;;;8.95;5.18;;;7.50;99.90;;;;;;5012279;28;20065;-47
2022/02/04 02:11:54;;;;;;;6.72;4.90;;;7.50;99.90;;;;;;5012421;28;20026;-48
2022/02/04 02:14:23;;;;;;;6.00;4.53;;;7.40;99.90;;;;;;5011950;28;20117;-47
2022/02/04 02:33:39;;;;;;;7.25;5.50;;;7.30;99.90;;;;;;5012043;28;20028;-46
2022/02/04 02:55:18;;;;;;;5.22;4.70;;;7.20;99.90;;;;;;4992201;28;20408;-46
2022/02/04 03:02:58;;;;;;;7.63;5.22;;;7.30;99.90;;;;;;5011538;28;20018;-50
2022/02/04 03:05:23;;;;;;;9.10;5.85;;;7.30;99.90;;;;;;5011673;28;20026;-46
2022/02/04 03:07:49;;;;;;;5.63;5.03;;;7.30;99.90;;;;;;5011594;28;20029;-45
2022/02/04 03:10:15;;;;;;;7.43;5.38;;;7.40;99.90;;;;;;5011566;28;20026;-49
2022/02/04 03:12:43;;;;;;;6.72;5.25;;;7.30;99.90;;;;;;5011502;28;20073;-46
2022/02/04 03:15:09;;;;;;;5.90;5.28;;;7.40;99.90;;;;;;5011323;28;20026;-48
2022/02/04 03:17:35;;;;;;;6.15;5.18;;;7.30;99.90;;;;;;5011295;28;20052;-46
2022/02/04 03:20:06;;;;;;;8.40;5.10;;;7.20;99.90;;;;;;5011671;28;20456;-48
2022/02/04 03:22:31;;;;;;;10.13;5.35;;;7.30;99.90;;;;;;5011585;28;20026;-47
2022/02/04 03:25:01;;;;;;;8.25;4.97;;;7.20;99.90;;;;;;5011224;28;20075;-46
2022/02/04 03:27:34;;;;;;;6.13;4.90;;;7.30;99.90;;;;;;5011398;28;20046;-46
2022/02/04 03:32:28;;;;;;;8.20;6.25;;;7.30;99.90;;;;;;5011595;28;20026;-46
2022/02/04 03:34:54;;;;;;;9.02;5.15;;;7.20;99.90;;;;;;5011078;28;20394;-47
2022/02/04 03:37:19;;;;;;;6.70;5.40;;;7.30;99.90;;;;;;5011420;28;20083;-47
2022/02/04 03:39:45;;;;;;;8.10;5.32;;;7.40;99.90;;;;;;5011400;28;20037;-46
2022/02/04 03:42:10;;;;;;;8.88;4.53;;;7.30;99.90;;;;;;5011215;28;20033;-47
2022/02/04 03:44:36;;;;;;;6.75;5.40;;;7.20;99.90;;;;;;5009434;28;20030;-46
2022/02/04 03:47:02;;;;;;;6.32;5.05;;;7.20;99.90;;;;;;5011157;28;20030;-46
2022/02/04 03:49:28;;;;;;;7.95;5.53;;;7.20;99.90;;;;;;5013749;28;20026;-45
2022/02/04 03:51:54;;;;;;;6.93;5.40;;;7.30;99.90;;;;;;5014802;28;20026;-49
2022/02/04 03:54:19;;;;;;;10.82;5.68;;;7.30;99.90;;;;;;5014518;28;20017;-46
2022/02/04 03:56:45;;;;;;;7.00;5.72;;;7.40;99.90;;;;;;5014793;28;20102;-46
2022/02/04 03:59:10;;;;;;;8.65;5.97;;;7.30;99.90;;;;;;5014502;28;20028;-45
2022/02/04 04:01:36;;;;;;;10.80;6.13;;;7.30;99.90;;;;;;5014594;28;20117;-46
2022/02/04 04:04:02;;;;;;;8.32;6.88;;;7.20;99.90;;;;;;5014351;28;20026;-46
2022/02/04 04:06:28;;;;;;;9.52;6.75;;;7.30;99.90;;;;;;5014647;28;20029;-49
2022/02/04 04:08:55;;;;;;;10.02;7.75;;;7.20;99.90;;;;;;5014390;28;20030;-48
2022/02/04 04:11:20;;;;;;;10.80;7.47;;;7.20;99.90;;;;;;5014324;28;20033;-51
2022/02/04 04:17:08;;;;;;;9.85;7.95;;;7.20;99.90;;;;;;5012366;28;20076;-46
2022/02/04 04:19:34;;;;;;;9.20;7.18;;;7.20;99.90;;;;;;5014324;28;20397;-45
2022/02/04 04:21:59;;;;;;;9.00;7.32;;;7.10;99.90;;;;;;5014511;28;20550;-47
2022/02/04 04:24:25;;;;;;;14.65;8.52;;;7.10;99.90;;;;;;5012827;28;20022;-46
2022/02/04 04:26:50;;;;;;;17.02;8.77;;;7.10;99.90;;;;;;5014517;28;20020;-46
2022/02/04 04:29:16;;;;;;;10.00;8.45;;;7.10;99.90;;;;;;5013966;28;20393;-46
2022/02/04 04:31:41;;;;;;;10.57;7.82;;;7.20;99.90;;;;;;5014665;28;20104;-46
2022/02/04 04:34:07;;;;;;;9.02;7.45;;;7.10;99.90;;;;;;5013933;28;20026;-45
2022/02/04 04:36:34;;;;;;;11.18;8.65;;;7.10;99.90;;;;;;5014086;28;20078;-45
2022/02/04 04:39:12;;;;;;;11.90;8.10;;;7.20;99.90;;;;;;5014496;28;20030;-46
2022/02/04 04:44:49;;;;;;;12.13;8.55;;;7.20;99.90;;;;;;5013128;28;20026;-47
2022/02/04 05:28:34;;;;;;;16.40;10.30;;;7.10;99.90;;;;;;5014051;28;20041;-50
2022/02/04 05:31:00;;;;;;;21.13;10.27;;;7.20;99.90;;;;;;5013902;28;20029;-47
2022/02/04 05:33:26;;;;;;;16.38;11.15;;;7.20;99.90;;;;;;5014152;28;20022;-47
2022/02/04 05:35:51;;;;;;;14.45;11.13;;;7.20;99.90;;;;;;5013808;28;20026;-48
2022/02/04 05:38:19;;;;;;;14.43;10.48;;;7.20;99.90;;;;;;5014020;28;20025;-47
2022/02/04 05:40:47;;;;;;;13.00;10.25;;;7.20;99.90;;;;;;5013671;28;20048;-51
2022/02/04 05:43:18;;;;;;;18.05;9.85;;;7.20;99.90;;;;;;5013492;28;20370;-50
2022/02/04 05:45:53;;;;;;;14.07;10.18;;;7.20;99.90;;;;;;5013607;28;20026;-49
2022/02/04 05:48:19;;;;;;;15.77;10.45;;;7.20;99.90;;;;;;5013388;28;20053;-47
2022/02/04 05:50:57;;;;;;;14.95;10.20;;;7.20;99.90;;;;;;5012568;28;20405;-45
2022/02/04 05:53:29;;;;;;;13.73;9.43;;;7.20;99.90;;;;;;5012265;28;20045;-47
2022/02/04 05:56:04;;;;;;;14.93;10.60;;;7.20;99.90;;;;;;5012484;28;20481;-46
2022/02/04 05:58:38;;;;;;;15.40;10.43;;;7.20;99.90;;;;;;5012183;28;20061;-45
2022/02/04 06:01:24;;;;;;;11.05;8.93;;;7.20;99.90;;;;;;5012484;28;20029;-45
2022/02/04 06:06:43;;;;;;;13.13;8.98;;;7.20;99.90;;;;;;5012313;28;20030;-45
2022/02/04 06:12:27;;;;;;;13.23;8.93;;;7.30;99.90;;;;;;5012120;28;20061;-46
2022/02/04 06:22:47;;;;;;;12.10;9.23;;;7.10;99.90;;;;;;5011913;28;20032;-46
2022/02/04 06:25:13;;;;;;;12.55;8.85;;;7.20;99.90;;;;;;5011852;28;20029;-47
2022/02/04 06:27:38;;;;;;;10.73;8.57;;;7.10;99.90;;;;;;5011861;28;20017;-50
2022/02/04 06:30:05;;;;;;;13.63;9.55;;;7.10;99.90;;;;;;5011818;28;20026;-46
2022/02/04 06:32:32;;;;;;;13.35;9.35;;;7.10;99.90;;;;;;5011876;28;20436;-44
2022/02/04 06:34:59;;;;;;;13.20;9.48;;;7.10;99.90;;;;;;5011653;28;20060;-47
2022/02/04 06:37:25;;;;;;;12.80;9.10;;;7.10;99.90;;;;;;5011811;28;20090;-47
2022/02/04 06:39:51;;;;;;;17.17;9.07;;;7.10;99.90;;;;;;5011629;28;20088;-47
2022/02/04 06:42:27;;;;;;;12.70;9.57;;;7.10;99.90;;;;;;5011809;28;20038;-47
2022/02/04 06:44:53;;;;;;;11.55;8.95;;;7.10;99.90;;;;;;5011654;28;20117;-45
2022/02/04 06:47:19;;;;;;;13.57;9.57;;;7.10;99.90;;;;;;5012182;28;20430;-46
2022/02/04 06:49:46;;;;;;;11.02;8.52;;;7.00;99.90;;;;;;5012033;28;20060;-48
2022/02/04 06:52:12;;;;;;;11.20;7.95;;;7.00;99.90;;;;;;5011994;28;20029;-46
2022/02/04 06:54:38;;;;;;;12.73;8.50;;;7.00;99.90;;;;;;5011625;28;20084;-48
2022/02/04 06:57:04;;;;;;;18.60;9.30;;;7.10;99.90;;;;;;5012375;28;20033;-46
2022/02/04 06:59:30;;;;;;;13.10;8.48;;;7.10;99.90;;;;;;5012024;28;20029;-46
2022/02/04 07:01:55;;;;;;;10.63;8.73;;;7.10;99.90;;;;;;5011861;28;20052;-46
2022/02/04 07:04:21;;;;;;;13.60;9.00;;;7.10;99.90;;;;;;5011326;28;20058;-47
2022/02/04 07:06:58;;;;;;;13.65;8.80;;;7.10;99.90;;;;;;5010642;28;20452;-45
2022/02/04 07:09:33;;;;;;;12.23;8.65;;;7.10;99.90;;;;;;5011346;28;20038;-48
2022/02/04 07:12:16;;;;;;;11.05;7.90;;;7.10;99.90;;;;;;5011878;28;20022;-46
2022/02/04 07:19:45;;;;;;;12.25;9.00;;;7.10;99.90;;;;;;5011815;28;20025;-45
2022/02/04 07:22:16;;;;;;;12.00;9.88;;;7.20;99.90;;;;;;5011701;28;20487;-47
2022/02/04 07:24:41;;;;;;;14.52;9.23;;;7.10;99.90;;;;;;5014720;28;20041;-47
2022/02/04 07:27:07;;;;;;;11.02;9.18;;;7.10;99.90;;;;;;5015608;28;20397;-46
2022/02/04 07:29:34;;;;;;;14.40;9.13;;;7.10;99.90;;;;;;5015540;28;20037;-47
2022/02/04 07:32:05;;;;;;;10.93;9.32;;;7.20;99.90;;;;;;5015772;28;20366;-46
2022/02/04 07:34:45;;;;;;;10.43;8.60;;;7.10;99.90;;;;;;5015139;28;20030;-46
2022/02/04 07:42:38;;;;;;;11.02;9.18;;;7.00;99.90;;;;;;5015085;28;20084;-48
2022/02/04 07:45:04;;;;;;;11.02;8.52;;;7.10;99.90;;;;;;5014490;28;20030;-48
2022/02/04 07:47:31;;;;;;;10.48;8.75;;;7.00;99.90;;;;;;5014798;28;20129;-45
2022/02/04 07:49:57;;;;;;;11.60;8.43;;;7.00;99.90;;;;;;5014933;28;20136;-45
2022/02/04 07:52:22;;;;;;;10.23;8.50;;;7.10;99.90;;;;;;5014951;28;20108;-46
2022/02/04 07:54:48;;;;;;;11.85;8.75;;;7.10;99.90;;;;;;5014903;28;20032;-46
2022/02/04 07:57:13;;;;;;;11.00;8.50;;;7.10;99.90;;;;;;5014755;28;20025;-48
2022/02/04 07:59:39;;;;;;;10.02;8.68;;;7.20;99.90;;;;;;5014693;28;20558;-47
2022/02/04 08:02:05;;;;;;;12.30;8.55;;;7.20;99.90;;;;;;5014794;28;20420;-47
2022/02/04 08:04:33;;;;;;;9.57;7.97;;;7.20;99.90;;;;;;5014222;28;20080;-45
2022/02/04 08:07:09;;;;;;;11.40;8.52;;;7.20;99.90;;;;;;5014551;28;20022;-46
2022/02/04 08:09:52;;;;;;;13.00;8.43;;;7.20;99.90;;;;;;5014343;28;20026;-46
2022/02/04 08:17:44;;;;;;;9.75;7.93;;;7.30;99.90;;;;;;5014470;28;20026;-48
2022/02/04 08:25:36;;;;;;;11.00;8.35;;;7.30;99.90;;;;;;5014250;28;20026;-47
2022/02/04 08:28:40;;;;;;;11.25;8.25;;;7.30;99.90;;;;;;5014294;28;20114;-47
2022/02/04 08:31:31;;;;;;;9.75;7.78;;;7.20;99.90;;;;;;5013921;28;20033;-46
2022/02/04 08:52:38;;;;;;;13.85;8.35;;;7.50;99.90;;;;;;5003109;28;20019;-47
2022/02/04 08:55:15;;;;;;;9.57;7.35;;;7.50;99.90;;;;;;4993912;28;20033;-46
2022/02/04 09:03:25;;;;;;;10.70;9.27;;;7.50;99.90;;;;;;4988009;28;20138;-45
2022/02/04 09:06:04;;;;;;;10.75;7.57;;;7.60;99.90;;;;;;4992845;28;20104;-44
2022/02/04 09:08:32;;;;;;;9.52;7.68;;;7.60;99.90;;;;;;4993211;28;20117;-46
2022/02/04 09:11:03;;;;;;;10.50;7.63;;;7.60;99.90;;;;;;4981538;28;20473;-46
2022/02/04 09:19:03;;;;;;;8.10;6.60;;;7.70;99.90;;;;;;4993261;28;20041;-49
2022/02/04 09:24:11;;;;;;;7.22;6.07;;;7.60;99.90;;;;;;4993374;28;20026;-46
2022/02/04 09:26:37;;;;;;;8.20;6.50;;;7.70;99.90;;;;;;4983447;28;20034;-47
2022/02/04 09:29:03;;;;;;;8.05;6.40;;;7.70;99.90;;;;;;4974114;28;20387;-49
2022/02/04 09:31:29;;;;;;;7.00;6.07;;;7.70;99.90;;;;;;4974234;28;20034;-46
2022/02/04 09:33:54;;;;;;;10.90;6.57;;;7.70;99.90;;;;;;5009014;28;20445;-46
2022/02/04 09:36:20;;;;;;;8.32;6.45;;;7.70;99.90;;;;;;5002629;28;20377;-45
2022/02/04 09:38:45;;;;;;;7.25;6.25;;;7.70;99.90;;;;;;4992397;28;20117;-49
2022/02/04 09:41:11;;;;;;;10.90;6.45;;;7.70;99.90;;;;;;4993209;28;20094;-45
2022/02/04 09:43:36;;;;;;;7.95;6.22;;;7.70;99.90;;;;;;4993130;28;20419;-46
2022/02/04 09:46:02;;;;;;;9.13;7.43;;;7.70;99.90;;;;;;4992388;28;20062;-47
2022/02/04 09:48:29;;;;;;;7.65;6.85;;;7.70;99.90;;;;;;4992972;28;20101;-47
2022/02/04 09:50:56;;;;;;;8.77;7.47;;;7.70;99.90;;;;;;4992371;28;20088;-46
2022/02/04 10:11:02;;;;;;;9.18;5.93;;;7.80;99.90;;;;;;4991131;28;20510;-47
2022/02/04 10:13:51;;;;;;;5.57;5.00;;;7.80;99.90;;;;;;4992448;28;20105;-48
2022/02/04 10:16:42;;;;;;;5.68;5.18;;;7.80;99.90;;;;;;4992780;28;20482;-45
2022/02/04 10:19:23;;;;;;;6.50;5.15;;;7.90;99.90;;;;;;4992448;28;20030;-47
2022/02/04 10:21:59;;;;;;;6.63;5.65;;;8.00;99.90;;;;;;4992495;28;20034;-44
2022/02/04 10:24:26;;;;;;;5.35;4.72;;;8.00;99.90;;;;;;4992155;28;20435;-47
2022/02/04 10:27:11;;;;;;;7.47;5.53;;;8.00;99.90;;;;;;4992350;28;20498;-47
2022/02/04 10:29:38;;;;;;;6.88;5.32;;;8.00;99.90;;;;;;4992473;28;20034;-45
2022/02/04 10:32:05;;;;;;;6.75;4.88;;;8.00;99.90;;;;;;4992391;28;20018;-47
2022/02/04 10:34:31;;;;;;;10.00;5.22;;;8.00;99.90;;;;;;4991846;28;20022;-47
2022/02/04 10:37:01;;;;;;;5.25;4.43;;;7.90;99.90;;;;;;4992326;28;20077;-45
2022/02/04 10:40:08;;;;;;;6.38;4.65;;;7.90;99.90;;;;;;4992328;28;20054;-47
2022/02/04 10:56:22;;;;;;;6.20;4.18;;;7.90;99.90;;;;;;4992413;28;20033;-46
2022/02/04 10:59:13;;;;;;;4.40;3.58;;;7.90;99.90;;;;;;4995554;28;20085;-45
2022/02/04 11:04:20;;;;;;;7.70;3.58;;;7.90;99.90;;;;;;4996041;28;20542;-48
2022/02/04 11:07:11;;;;;;;3.92;3.53;;;7.80;99.90;;;;;;4996053;28;20400;-45
2022/02/04 11:32:46;;;;;;;3.28;2.97;;;8.00;99.90;;;;;;4995204;28;20032;-45
2022/02/04 11:43:47;;;;;;;;;;;8.00;99.90;;;;;;4995877;28;20524;-46
2022/02/04 11:50:54;;;;;;;2.53;2.22;;;8.00;99.90;;;;;;4995421;28;20288;-44
2022/02/04 11:52:41;;;;;;;2.23;1.80;;;8.10;99.90;;;;;;4994079;28;20030;-44
2022/02/04 11:55:10;;;;;;;2.30;1.90;;;8.10;99.90;;;;;;5003383;28;20261;-48
2022/02/04 11:57:56;;;;;;;1.65;1.55;;;8.20;99.90;;;;;;4993360;28;20394;-46
2022/02/04 12:00:35;;;;;;;1.60;1.50;;;8.30;99.90;;;;;;4981698;28;20030;-46
2022/02/04 12:03:20;;;;;;;1.75;1.55;;;8.30;99.90;;;;;;5014519;28;20072;-48
2022/02/04 12:05:49;;;;;;;2.17;1.65;;;8.40;99.90;;;;;;5014573;28;20428;-52
2022/02/04 12:08:15;;;;;;;2.35;2.10;;;8.40;99.90;;;;;;5014455;28;20505;-44
2022/02/04 12:10:51;;;;;;;5.47;1.48;;;8.40;99.90;;;;;;4993196;28;20033;-43
2022/02/04 12:13:19;;;;;;;2.25;2.05;;;8.40;99.90;;;;;;4994806;28;20029;-44
2022/02/04 12:15:49;;;;;;;1.70;1.60;;;8.40;99.90;;;;;;4995037;28;20402;-46
2022/02/04 12:18:19;;;;;;;1.83;1.73;;;8.50;99.90;;;;;;4995379;28;20038;-44
2022/02/04 12:23:26;;;;;;;1.73;1.63;;;8.50;99.90;;;;;;4994247;28;20030;-43
2022/02/04 12:25:52;;;;;;;1.80;1.70;;;8.50;99.90;;;;;;4994440;28;20054;-51
2022/02/04 12:28:56;;;;;;;1.60;1.50;;;8.50;99.90;;;;;;4994247;28;20026;-44
2022/02/04 12:31:45;;;;;;;1.75;1.65;;;8.50;99.90;;;;;;4974826;28;20019;-48
2022/02/04 12:34:17;;;;;;;2.08;1.95;;;8.50;99.90;;;;;;4985200;28;20029;-46
2022/02/04 12:36:47;;;;;;;1.60;1.50;;;8.50;99.90;;;;;;4994274;28;20528;-45
2022/02/04 12:39:22;;;;;;;1.77;1.50;;;8.50;99.90;;;;;;4992718;28;20034;-44
2022/02/04 12:41:50;;;;;;;1.67;1.58;;;8.50;99.90;;;;;;4994363;28;20117;-45
2022/02/04 12:44:24;;;;;;;1.67;1.55;;;8.50;99.90;;;;;;4992927;28;20110;-46
2022/02/04 12:46:56;;;;;;;1.33;1.30;;;8.50;99.90;;;;;;4994516;28;20077;-45
2022/02/04 12:49:27;;;;;;;1.42;1.33;;;8.50;99.90;;;;;;4993669;28;20034;-46
2022/02/04 12:52:09;;;;;;;1.23;1.23;;;8.50;99.90;;;;;;4989139;28;20028;-45
2022/02/04 12:54:51;;;;;;;1.35;1.30;;;8.60;99.90;;;;;;4993938;28;20076;-47
2022/02/04 12:59:57;;;;;;;1.10;1.10;;;8.60;99.90;;;;;;4983106;28;20564;-47
2022/02/04 13:07:50;;;;;;;1.08;1.08;;;8.70;99.90;;;;;;4986649;28;20033;-44
2022/02/04 13:10:27;;;;;;;1.02;1.02;;;8.70;99.90;;;;;;4996219;28;20030;-48
2022/02/04 13:13:03;;;;;;;1.08;1.08;;;8.80;99.90;;;;;;4993505;28;20073;-48
2022/02/04 13:15:33;;;;;;;1.08;1.08;;;8.70;99.90;;;;;;4993305;28;20379;-48
2022/02/04 13:17:59;;;;;;;1.33;1.25;;;8.70;99.90;;;;;;4992104;28;20117;-47
2022/02/04 13:20:26;;;;;;;1.17;0.95;;;8.80;99.90;;;;;;4992669;28;20052;-46
2022/02/04 13:22:58;;;;;;;0.90;0.90;;;8.80;99.90;;;;;;4992988;28;20433;-45
2022/02/04 13:25:37;;;;;;;1.20;1.20;;;8.70;99.90;;;;;;4993244;28;20454;-44
2022/02/04 13:28:11;;;;;;;0.82;0.82;;;8.70;99.90;;;;;;4992631;28;20642;-46
2022/02/04 13:30:41;;;;;;;2.22;1.35;;;8.70;99.90;;;;;;4993139;28;20030;-48
2022/02/04 13:33:20;;;;;;;1.00;1.00;;;8.70;99.90;;;;;;4993156;28;20108;-45
2022/02/04 13:35:59;;;;;;;0.90;0.90;;;8.70;99.90;;;;;;4992959;28;20069;-46
2022/02/04 13:41:09;;;;;;;0.77;0.77;;;8.70;99.90;;;;;;4993140;28;20026;-46
2022/02/04 13:46:19;;;;;;;5.22;3.88;;;8.70;99.90;;;;;;4993000;28;20030;-47
2022/02/04 13:49:01;;;;;;;1.23;0.90;;;8.70;99.90;;;;;;4973559;28;20030;-51
2022/02/04 13:51:43;;;;;;;2.13;1.92;;;8.70;99.90;;;;;;4990957;28;20548;-45
2022/02/04 13:57:41;;;;;;;0.80;0.80;;;8.70;99.90;;;;;;4992950;28;20033;-46
2022/02/04 14:02:50;;;;;;;0.77;0.77;;;8.70;99.90;;;;;;4991211;28;20035;-46
2022/02/04 14:05:33;;;;;;;0.70;0.70;;;8.60;99.90;;;;;;4980112;28;20031;-47
2022/02/04 14:08:12;;;;;;;0.70;0.70;;;8.60;99.90;;;;;;4991725;28;20027;-48
2022/02/04 14:10:57;;;;;;;0.70;0.70;;;8.50;99.90;;;;;;4992497;28;20026;-52
2022/02/04 14:13:25;;;;;;;0.60;0.60;;;8.50;99.90;;;;;;4990969;28;20561;-50
2022/02/04 14:15:54;;;;;;;0.80;0.80;;;8.60;99.90;;;;;;4973401;28;20424;-49
2022/02/04 14:18:20;;;;;;;0.60;0.60;;;8.60;99.90;;;;;;4981507;28;20031;-45
2022/02/04 14:20:46;;;;;;;1.00;0.57;;;8.50;99.90;;;;;;4992369;28;20077;-46
2022/02/04 14:23:13;;;;;;;1.58;0.60;;;8.50;99.90;;;;;;4992042;28;20031;-47
2022/02/04 14:26:02;;;;;;;0.70;0.70;;;8.50;99.90;;;;;;4991829;28;20030;-46
2022/02/04 14:28:38;;;;;;;5.07;0.50;;;8.40;99.90;;;;;;4978270;28;20026;-45
2022/02/04 14:31:14;;;;;;;0.50;0.50;;;8.50;99.90;;;;;;4973010;28;20395;-48
2022/02/04 14:36:35;;;;;;;1.40;0.68;;;8.40;99.90;;;;;;4993030;28;20065;-45
2022/02/04 14:50:32;;;;;;;0.75;0.75;;;8.40;99.90;;;;;;4973221;28;20074;-42
2022/02/04 15:00:56;;;;;;;1.65;0.70;;;8.40;99.90;;;;;;4982683;28;20033;-42
2022/02/04 15:03:31;;;;;;;2.00;0.82;;;8.40;99.90;;;;;;4992126;28;20366;-44
2022/02/04 15:06:04;;;;;;;3.33;0.90;;;8.40;99.90;;;;;;4993165;28;20023;-43
2022/02/04 15:08:33;;;;;;;0.93;0.77;;;8.40;99.90;;;;;;4992181;28;20042;-45
2022/02/04 15:11:01;;;;;;;1.27;0.88;;;8.50;99.90;;;;;;4990965;28;20023;-42
2022/02/04 15:13:29;;;;;;;0.57;0.52;;;8.40;99.90;;;;;;4991569;28;20049;-45
2022/02/04 15:15:55;;;;;;;1.00;0.93;;;8.40;99.90;;;;;;4992074;28;20026;-45
2022/02/04 15:18:21;;;;;;;0.60;0.60;;;8.40;99.90;;;;;;4988571;28;20026;-45
2022/02/04 15:20:46;;;;;;;1.17;1.00;;;8.40;99.90;;;;;;4972114;28;20039;-47
2022/02/04 15:23:13;;;;;;;1.40;1.30;;;8.40;99.90;;;;;;4983679;28;20050;-45
2022/02/04 15:25:40;;;;;;;0.82;0.82;;;8.40;99.90;;;;;;5006579;28;20065;-45
2022/02/04 15:28:29;;;;;;;0.93;0.88;;;8.40;99.90;;;;;;4991033;28;20026;-44
2022/02/04 15:30:55;;;;;;;0.90;0.90;;;8.50;99.90;;;;;;4991916;28;20487;-47
2022/02/04 15:33:22;;;;;;;0.70;0.70;;;8.50;99.90;;;;;;4990737;28;20027;-44
2022/02/04 15:35:47;;;;;;;0.98;0.88;;;8.50;99.90;;;;;;4991496;28;20037;-44
2022/02/04 15:38:13;;;;;;;1.77;1.00;;;;;;;;;;4990881;28;20026;-46
2022/02/04 15:40:44;;;;;;;1.17;1.08;;;8.50;99.90;;;;;;4991680;28;20041;-46
2022/02/04 15:43:10;;;;;;;0.70;0.70;;;8.50;99.90;;;;;;4991330;28;20029;-45
2022/02/04 15:56:14;;;;;;;0.95;0.70;;;8.50;99.90;;;;;;4994948;28;20033;-43
2022/02/04 16:01:20;;;;;;;5.07;3.38;;;8.50;99.90;;;;;;4995143;28;20057;-44
2022/02/04 16:04:20;;;;;;;3.70;1.35;;;8.50;99.90;;;;;;5009615;28;20112;-41
2022/02/04 16:06:47;;;;;;;1.00;1.00;;;8.50;99.90;;;;;;4994901;28;20022;-45
2022/02/04 16:09:14;;;;;;;1.10;1.10;;;8.50;99.90;;;;;;4994563;28;20030;-45
2022/02/04 16:17:08;;;;;;;0.93;0.90;;;8.50;99.90;;;;;;4994969;28;20027;-41
2022/02/04 16:19:41;;;;;;;1.45;0.93;;;8.50;99.90;;;;;;4994444;28;20055;-42
2022/02/04 16:22:15;;;;;;;1.75;0.95;;;8.40;99.90;;;;;;4994679;28;20428;-44
2022/02/04 16:29:54;;;;;;;2.25;0.80;;;8.50;99.90;;;;;;4994345;28;20160;-44
2022/02/04 16:32:19;;;;;;;1.05;0.98;;;8.40;99.90;;;;;;4994379;28;20050;-45
2022/02/04 16:34:52;;;;;;;1.45;1.05;;;8.30;99.90;;;;;;4994085;28;20474;-42
2022/02/04 16:37:29;;;;;;;1.00;1.00;;;8.30;99.90;;;;;;4994472;28;20548;-44
2022/02/04 16:39:56;;;;;;;3.15;1.08;;;8.20;99.90;;;;;;4994756;28;20394;-42
2022/02/04 16:42:22;;;;;;;3.42;1.20;;;8.20;99.90;;;;;;4994379;28;20057;-43
2022/02/04 16:44:48;;;;;;;1.30;1.20;;;8.20;99.90;;;;;;4994008;28;20058;-45
2022/02/04 16:47:14;;;;;;;4.10;1.25;;;8.20;99.90;;;;;;4994139;28;20482;-43
2022/02/04 16:49:40;;;;;;;1.20;1.10;;;8.10;99.90;;;;;;4994233;28;20030;-45
2022/02/04 16:52:05;;;;;;;2.72;1.20;;;8.10;99.90;;;;;;4994094;28;20486;-48
2022/02/04 16:54:33;;;;;;;3.03;0.98;;;8.10;99.90;;;;;;5008690;28;20030;-46
2022/02/04 16:57:00;;;;;;;1.05;0.63;;;8.10;99.90;;;;;;4993348;28;20390;-46
2022/02/04 16:59:26;;;;;;;0.88;0.88;;;8.00;99.90;;;;;;4993870;28;20026;-46
2022/02/04 17:01:57;;;;;;;3.67;0.80;;;8.00;99.90;;;;;;4993890;28;20022;-43
2022/02/04 17:04:23;;;;;;;0.93;0.90;;;8.10;99.90;;;;;;4993583;28;20109;-43
2022/02/04 17:06:56;;;;;;;2.15;1.02;;;8.00;99.90;;;;;;4993710;28;20665;-44
2022/02/04 17:09:27;;;;;;;0.75;0.75;;;8.10;99.90;;;;;;4992135;28;20026;-43
2022/02/04 17:12:01;;;;;;;2.35;1.30;;;8.00;99.90;;;;;;4994027;28;20026;-44
2022/02/04 17:14:28;;;;;;;0.98;0.90;;;8.10;99.90;;;;;;4993136;28;20054;-52
2022/02/04 17:16:55;;;;;;;2.97;1.45;;;8.10;99.90;;;;;;4993139;28;20029;-44
2022/02/04 17:19:24;;;;;;;1.30;0.80;;;8.10;99.90;;;;;;4991582;28;20092;-43
2022/02/04 17:21:50;;;;;;;0.73;0.73;;;8.10;99.90;;;;;;4993575;28;20045;-44
2022/02/04 17:24:18;;;;;;;0.70;0.70;;;8.10;99.90;;;;;;4993086;28;20026;-44
2022/02/04 17:26:45;;;;;;;0.70;0.70;;;8.10;99.90;;;;;;4991080;28;20030;-43
2022/02/04 17:29:12;;;;;;;1.08;0.77;;;8.10;99.90;;;;;;4993182;28;20118;-43
2022/02/04 17:31:38;;;;;;;0.80;0.80;;;8.20;99.90;;;;;;4993401;28;20030;-45
2022/02/04 17:34:05;;;;;;;1.23;0.77;;;8.20;99.90;;;;;;4993076;28;20316;-43
2022/02/04 17:36:35;;;;;;;1.05;1.00;;;8.20;99.90;;;;;;4992744;28;20401;-42
2022/02/04 17:39:02;;;;;;;0.60;0.60;;;8.20;99.90;;;;;;4992939;28;20030;-43
2022/02/04 17:41:28;;;;;;;0.80;0.80;;;8.30;99.90;;;;;;4993445;28;20034;-47
2022/02/04 17:43:55;;;;;;;0.93;0.93;;;8.30;99.90;;;;;;4992937;28;20108;-44
2022/02/04 17:46:25;;;;;;;2.33;0.80;;;8.30;99.90;;;;;;4993848;28;20029;-46
2022/02/04 17:48:57;;;;;;;0.70;0.70;;;8.30;99.90;;;;;;4993081;28;20022;-44
2022/02/04 17:53:55;;;;;;;0.90;0.90;;;8.30;99.90;;;;;;4992623;28;20058;-47
2022/02/04 17:56:34;;;;;;;1.40;0.90;;;8.30;99.90;;;;;;4992899;28;20434;-44
2022/02/04 18:09:38;;;;;;;0.90;0.90;;;8.30;99.90;;;;;;4992679;28;20030;-42
2022/02/04 18:12:05;;;;;;;1.08;1.08;;;8.30;99.90;;;;;;4993138;28;20025;-45
2022/02/04 18:14:31;;;;;;;0.85;0.85;;;8.30;99.90;;;;;;4992549;28;20026;-43
2022/02/04 18:16:56;;;;;;;0.90;0.90;;;8.30;99.90;;;;;;4992788;28;20033;-45
2022/02/04 18:19:22;;;;;;;0.70;0.70;;;8.30;99.90;;;;;;4992281;28;20026;-42
2022/02/04 18:21:48;;;;;;;0.70;0.70;;;8.30;99.90;;;;;;4992573;28;20037;-44
2022/02/04 18:24:14;;;;;;;3.92;0.80;;;8.30;99.90;;;;;;4992533;28;20482;-43
2022/02/04 18:26:39;;;;;;;0.90;0.90;;;8.40;99.90;;;;;;4992514;28;20053;-45
2022/02/04 18:29:05;;;;;;;0.73;0.73;;;8.30;99.90;;;;;;4992420;28;20014;-44
2022/02/04 18:31:32;;;;;;;2.45;0.80;;;8.40;99.90;;;;;;4992578;28;20030;-42
2022/02/04 18:34:01;;;;;;;2.15;1.77;;;8.40;99.90;;;;;;4991987;28;20394;-47
2022/02/04 18:36:28;;;;;;;0.93;0.93;;;8.50;99.90;;;;;;4992464;28;20027;-43
2022/02/04 18:39:08;;;;;;;5.43;1.10;;;8.60;99.90;;;;;;4992212;28;20022;-44
2022/02/04 18:41:52;;;;;;;1.42;0.93;;;8.50;99.90;;;;;;4992564;28;20030;-42
2022/02/04 18:44:20;;;;;;;1.27;1.00;;;8.50;99.90;;;;;;4992352;28;20036;-42
2022/02/04 18:47:07;;;;;;;1.55;1.23;;;8.50;99.90;;;;;;4992835;28;20030;-44
2022/02/04 18:49:42;;;;;;;0.93;0.93;;;8.50;99.90;;;;;;4992840;28;20054;-43
2022/02/04 18:52:22;;;;;;;0.90;0.90;;;8.50;99.90;;;;;;4992379;28;20445;-42
2022/02/04 18:57:24;;;;;;;3.10;1.25;;;8.50;99.90;;;;;;4992241;28;20058;-42
2022/02/04 19:02:15;;;;;;;1.02;1.00;;;8.50;99.90;;;;;;4992605;28;20394;-43
2022/02/04 19:04:51;;;;;;;0.80;0.80;;;8.50;99.90;;;;;;4991752;28;20026;-44
2022/02/04 19:07:21;;;;;;;1.13;1.13;;;8.50;99.90;;;;;;4990905;28;20026;-43
2022/02/04 19:09:49;;;;;;;0.77;0.77;;;8.50;99.90;;;;;;4991926;28;20088;-44
2022/02/04 19:12:18;;;;;;;1.27;1.17;;;8.50;99.90;;;;;;4990195;28;20022;-45
2022/02/04 19:17:18;;;;;;;2.13;1.20;;;8.60;99.90;;;;;;4989339;28;20026;-46
2022/02/04 19:22:25;;;;;;;1.13;1.13;;;8.60;99.90;;;;;;4977280;28;20470;-45
2022/02/04 19:24:52;;;;;;;3.25;1.30;;;8.50;99.90;;;;;;4977920;28;20041;-45